ITY715 OMAA-LIRF
Flight info
| Callsign | ITY715 |
|---|---|
| Flight time | N/A |
| Altitude | 36000 |
| Route | BOSEV N563 IMGUX P699 SOGAT A453 BHR B457 NARMI J735 TAYMA N697 LABLI/N0490F380 N697 BPN H999 HIL N697 KITOT L550 NOVPA N697 MENLI L677 CVO L617 NABSI M872 METRU UL81 TETUZ/N0480F400 UL81 LORNO DCT KOGEB DCT POLIT DCT LAT |
| Aircraft | A359/H-SDE1E2E3FGHIJ2J3J4J5M1RWXY/LB1D1 |
Departure
| Time | 2026-05-05 07:46 |
|---|---|
| Airport | Zayed International Airport (OMAA) |
Arrival
| Time | N/A |
|---|---|
| Airport | Rome–Fiumicino Leonardo da Vinci International Airport (LIRF) |
| Time | Latitude | Longitude | Altitude | Speed | Heading |
|---|---|---|---|---|---|
| 2026-05-05 07:28 | 24.44957 | 54.64146 | 101 ft | 0 kts | 23° |
| 2026-05-05 07:37 | 24.44943 | 54.64138 | 101 ft | 3 kts | 29° |
| 2026-05-05 07:37 | 24.44922 | 54.64125 | 101 ft | 3 kts | 29° |
| 2026-05-05 07:37 | 24.44901 | 54.64112 | 101 ft | 3 kts | 29° |
| 2026-05-05 07:38 | 24.44879 | 54.64099 | 101 ft | 3 kts | 29° |
| 2026-05-05 07:38 | 24.44858 | 54.64086 | 101 ft | 3 kts | 19° |
| 2026-05-05 07:38 | 24.44836 | 54.64085 | 101 ft | 3 kts | 344° |
| 2026-05-05 07:38 | 24.44816 | 54.64097 | 101 ft | 3 kts | 331° |
| 2026-05-05 07:39 | 24.44793 | 54.64107 | 101 ft | 3 kts | 345° |
| 2026-05-05 07:39 | 24.44781 | 54.64111 | 102 ft | 0 kts | 345° |
| 2026-05-05 07:41 | 24.44788 | 54.64109 | 102 ft | 2 kts | 344° |
| 2026-05-05 07:41 | 24.44819 | 54.64093 | 102 ft | 7 kts | 322° |
| 2026-05-05 07:41 | 24.44834 | 54.64035 | 102 ft | 10 kts | 255° |
| 2026-05-05 07:42 | 24.44805 | 54.63959 | 102 ft | 11 kts | 245° |
| 2026-05-05 07:42 | 24.44772 | 54.63883 | 102 ft | 11 kts | 244° |
| 2026-05-05 07:42 | 24.44742 | 54.63812 | 102 ft | 10 kts | 247° |
| 2026-05-05 07:42 | 24.44700 | 54.63755 | 102 ft | 9 kts | 219° |
| 2026-05-05 07:43 | 24.44650 | 54.63712 | 102 ft | 9 kts | 217° |
| 2026-05-05 07:43 | 24.44602 | 54.63672 | 102 ft | 8 kts | 217° |
| 2026-05-05 07:43 | 24.44557 | 54.63633 | 102 ft | 8 kts | 217° |
| 2026-05-05 07:43 | 24.44514 | 54.63598 | 102 ft | 7 kts | 217° |
| 2026-05-05 07:44 | 24.44475 | 54.63565 | 102 ft | 7 kts | 216° |
| 2026-05-05 07:44 | 24.44432 | 54.63547 | 102 ft | 5 kts | 172° |
| 2026-05-05 07:44 | 24.44410 | 54.63564 | 102 ft | 4 kts | 129° |
| 2026-05-05 07:44 | 24.44407 | 54.63569 | 102 ft | 0 kts | 129° |
| 2026-05-05 07:45 | 24.44350 | 54.63645 | 102 ft | 36 kts | 129° |
| 2026-05-05 07:45 | 24.44059 | 54.64055 | 102 ft | 99 kts | 128° |
| 2026-05-05 07:45 | 24.43525 | 54.64808 | 102 ft | 153 kts | 128° |
| 2026-05-05 07:45 | 24.42801 | 54.65837 | 358 ft | 175 kts | 128° |
| 2026-05-05 07:46 | 24.42056 | 54.66900 | 1047 ft | 178 kts | 129° |
| 2026-05-05 07:46 | 24.41291 | 54.67971 | 1828 ft | 179 kts | 129° |
| 2026-05-05 07:46 | 24.40509 | 54.69066 | 2327 ft | 187 kts | 129° |
| 2026-05-05 07:46 | 24.39666 | 54.70248 | 2588 ft | 208 kts | 130° |
| 2026-05-05 07:47 | 24.38733 | 54.71559 | 2778 ft | 229 kts | 130° |
| 2026-05-05 07:47 | 24.37699 | 54.73010 | 2870 ft | 253 kts | 129° |
| 2026-05-05 07:47 | 24.36576 | 54.74587 | 3069 ft | 271 kts | 129° |
| 2026-05-05 07:47 | 24.35386 | 54.76258 | 3410 ft | 284 kts | 128° |
| 2026-05-05 07:48 | 24.34166 | 54.77971 | 4006 ft | 286 kts | 128° |
| 2026-05-05 07:48 | 24.32935 | 54.79701 | 4586 ft | 289 kts | 127° |
| 2026-05-05 07:48 | 24.31777 | 54.81202 | 5053 ft | 293 kts | 135° |
| 2026-05-05 07:48 | 24.30033 | 54.82385 | 5528 ft | 299 kts | 160° |
| 2026-05-05 07:49 | 24.27978 | 54.82661 | 6087 ft | 301 kts | 185° |
| 2026-05-05 07:49 | 24.25974 | 54.82052 | 6624 ft | 299 kts | 204° |
| 2026-05-05 07:49 | 24.24189 | 54.80876 | 6929 ft | 300 kts | 222° |
| 2026-05-05 07:49 | 24.22908 | 54.79104 | 6971 ft | 298 kts | 246° |
| 2026-05-05 07:50 | 24.22395 | 54.76941 | 6977 ft | 292 kts | 269° |
| 2026-05-05 07:50 | 24.22626 | 54.74786 | 6975 ft | 287 kts | 288° |
| 2026-05-05 07:50 | 24.23424 | 54.72808 | 6984 ft | 281 kts | 301° |
| 2026-05-05 07:50 | 24.24488 | 54.71020 | 6976 ft | 278 kts | 307° |
| 2026-05-05 07:51 | 24.25613 | 54.69307 | 6971 ft | 276 kts | 308° |
| 2026-05-05 07:51 | 24.26780 | 54.67654 | 6972 ft | 274 kts | 310° |
| 2026-05-05 07:51 | 24.27967 | 54.66022 | 6973 ft | 273 kts | 310° |
| 2026-05-05 07:51 | 24.29152 | 54.64387 | 6973 ft | 274 kts | 310° |
| 2026-05-05 07:52 | 24.30328 | 54.62749 | 6972 ft | 274 kts | 310° |
| 2026-05-05 07:52 | 24.31503 | 54.61101 | 6973 ft | 273 kts | 310° |
| 2026-05-05 07:52 | 24.32669 | 54.59463 | 6974 ft | 273 kts | 310° |
| 2026-05-05 07:52 | 24.33839 | 54.57819 | 6970 ft | 273 kts | 310° |
| 2026-05-05 07:53 | 24.35006 | 54.56176 | 6968 ft | 272 kts | 310° |
| 2026-05-05 07:53 | 24.36154 | 54.54559 | 6971 ft | 273 kts | 310° |
| 2026-05-05 07:53 | 24.37323 | 54.52914 | 6975 ft | 273 kts | 310° |
| 2026-05-05 07:53 | 24.38301 | 54.51139 | 6956 ft | 275 kts | 293° |
| 2026-05-05 07:54 | 24.38619 | 54.49059 | 7078 ft | 279 kts | 276° |
| 2026-05-05 07:54 | 24.38495 | 54.46912 | 7557 ft | 286 kts | 266° |
| 2026-05-05 07:54 | 24.38136 | 54.44739 | 8090 ft | 291 kts | 262° |
| 2026-05-05 07:54 | 24.37690 | 54.42562 | 8610 ft | 294 kts | 262° |
| 2026-05-05 07:55 | 24.37370 | 54.40357 | 9108 ft | 291 kts | 273° |
| 2026-05-05 07:55 | 24.37787 | 54.38219 | 9535 ft | 287 kts | 298° |
| 2026-05-05 07:55 | 24.39009 | 54.36516 | 9977 ft | 286 kts | 321° |
| 2026-05-05 07:55 | 24.40689 | 54.35299 | 10246 ft | 296 kts | 329° |
| 2026-05-05 07:56 | 24.42526 | 54.34213 | 10373 ft | 311 kts | 334° |
| 2026-05-05 07:56 | 24.44554 | 54.33228 | 10496 ft | 326 kts | 338° |
| 2026-05-05 07:56 | 24.46746 | 54.32378 | 10621 ft | 343 kts | 342° |
| 2026-05-05 07:56 | 24.49088 | 54.31599 | 10815 ft | 359 kts | 343° |
| 2026-05-05 07:57 | 24.51530 | 54.30811 | 11159 ft | 372 kts | 343° |
| 2026-05-05 07:57 | 24.53154 | 54.30271 | 11471 ft | 378 kts | 342° |
| 2026-05-05 07:57 | 24.55688 | 54.29402 | 12058 ft | 385 kts | 342° |
| 2026-05-05 07:57 | 24.58241 | 54.28507 | 12806 ft | 387 kts | 342° |
| 2026-05-05 07:58 | 24.60824 | 54.27600 | 13415 ft | 392 kts | 341° |
| 2026-05-05 07:58 | 24.63441 | 54.26681 | 14041 ft | 397 kts | 341° |
| 2026-05-05 07:58 | 24.66012 | 54.25551 | 14589 ft | 400 kts | 333° |
| 2026-05-05 07:58 | 24.68408 | 54.23962 | 15211 ft | 403 kts | 324° |
| 2026-05-05 07:59 | 24.70616 | 54.22110 | 15813 ft | 406 kts | 320° |
| 2026-05-05 07:59 | 24.72749 | 54.20060 | 16420 ft | 409 kts | 316° |
| 2026-05-05 07:59 | 24.74789 | 54.17851 | 17004 ft | 413 kts | 313° |
| 2026-05-05 07:59 | 24.76796 | 54.15568 | 17604 ft | 416 kts | 313° |
| 2026-05-05 08:00 | 24.78844 | 54.13289 | 18176 ft | 420 kts | 314° |
| 2026-05-05 08:00 | 24.80927 | 54.11019 | 18774 ft | 422 kts | 314° |
| 2026-05-05 08:00 | 24.82910 | 54.08629 | 19271 ft | 425 kts | 308° |
| 2026-05-05 08:00 | 24.84708 | 54.06034 | 19796 ft | 427 kts | 304° |
| 2026-05-05 08:01 | 24.86393 | 54.03329 | 20331 ft | 429 kts | 302° |
| 2026-05-05 08:01 | 24.87994 | 54.00541 | 20805 ft | 432 kts | 300° |
| 2026-05-05 08:01 | 24.89554 | 53.97698 | 21327 ft | 434 kts | 300° |
| 2026-05-05 08:01 | 24.91125 | 53.94844 | 21768 ft | 437 kts | 300° |
| 2026-05-05 08:02 | 24.92717 | 53.91977 | 22208 ft | 439 kts | 300° |
| 2026-05-05 08:02 | 24.94303 | 53.89133 | 22620 ft | 442 kts | 300° |
| 2026-05-05 08:02 | 24.95917 | 53.86241 | 23037 ft | 444 kts | 300° |
| 2026-05-05 08:02 | 24.97542 | 53.83329 | 23418 ft | 447 kts | 300° |
| 2026-05-05 08:03 | 24.99178 | 53.80399 | 23822 ft | 448 kts | 300° |
| 2026-05-05 08:03 | 25.00910 | 53.77526 | 24137 ft | 452 kts | 304° |
| 2026-05-05 08:03 | 25.02865 | 53.74796 | 24510 ft | 455 kts | 308° |
| 2026-05-05 08:03 | 25.04968 | 53.72180 | 24887 ft | 457 kts | 311° |
| 2026-05-05 08:04 | 25.07204 | 53.69677 | 25240 ft | 459 kts | 313° |
| 2026-05-05 08:04 | 25.09534 | 53.67248 | 25577 ft | 461 kts | 315° |
| 2026-05-05 08:04 | 25.11892 | 53.64838 | 25909 ft | 463 kts | 314° |
| 2026-05-05 08:04 | 25.14228 | 53.62395 | 26261 ft | 463 kts | 314° |
| 2026-05-05 08:05 | 25.16544 | 53.59918 | 26584 ft | 465 kts | 313° |
| 2026-05-05 08:05 | 25.18860 | 53.57420 | 26885 ft | 466 kts | 313° |
| 2026-05-05 08:05 | 25.21184 | 53.54914 | 27190 ft | 468 kts | 313° |
| 2026-05-05 08:05 | 25.23493 | 53.52426 | 27484 ft | 469 kts | 313° |
| 2026-05-05 08:06 | 25.25832 | 53.49908 | 27769 ft | 471 kts | 313° |
| 2026-05-05 08:06 | 25.28183 | 53.47372 | 28052 ft | 472 kts | 313° |
| 2026-05-05 08:06 | 25.29757 | 53.45685 | 28261 ft | 472 kts | 313° |
| 2026-05-05 08:06 | 25.32118 | 53.43154 | 28545 ft | 473 kts | 313° |
| 2026-05-05 08:07 | 25.34482 | 53.40612 | 28783 ft | 475 kts | 312° |
| 2026-05-05 08:07 | 25.36856 | 53.38058 | 29025 ft | 476 kts | 312° |
| 2026-05-05 08:07 | 25.39228 | 53.35500 | 29272 ft | 477 kts | 312° |
| 2026-05-05 08:07 | 25.41597 | 53.32928 | 29502 ft | 478 kts | 312° |
| 2026-05-05 08:08 | 25.43967 | 53.30348 | 29720 ft | 479 kts | 312° |
| 2026-05-05 08:08 | 25.46261 | 53.27739 | 29887 ft | 477 kts | 307° |
| 2026-05-05 08:08 | 25.48203 | 53.24729 | 30071 ft | 473 kts | 297° |
| 2026-05-05 08:08 | 25.49621 | 53.21498 | 30270 ft | 471 kts | 290° |
| 2026-05-05 08:09 | 25.50753 | 53.18110 | 30597 ft | 468 kts | 287° |
| 2026-05-05 08:09 | 25.51704 | 53.14674 | 30895 ft | 466 kts | 283° |
| 2026-05-05 08:09 | 25.52476 | 53.11185 | 31208 ft | 464 kts | 281° |
| 2026-05-05 08:09 | 25.53139 | 53.07694 | 31509 ft | 463 kts | 280° |
| 2026-05-05 08:10 | 25.53805 | 53.04205 | 31805 ft | 463 kts | 280° |
| 2026-05-05 08:10 | 25.54501 | 53.00729 | 32152 ft | 461 kts | 281° |
| 2026-05-05 08:10 | 25.55206 | 52.97263 | 32440 ft | 460 kts | 280° |
| 2026-05-05 08:10 | 25.56003 | 52.93830 | 32719 ft | 461 kts | 285° |
| 2026-05-05 08:11 | 25.57120 | 52.90541 | 33015 ft | 462 kts | 289° |
| 2026-05-05 08:11 | 25.58405 | 52.87280 | 33354 ft | 461 kts | 291° |
| 2026-05-05 08:11 | 25.59809 | 52.84084 | 33682 ft | 461 kts | 293° |
| 2026-05-05 08:11 | 25.61314 | 52.80937 | 33960 ft | 462 kts | 295° |
| 2026-05-05 08:12 | 25.62869 | 52.77823 | 34253 ft | 461 kts | 295° |
| 2026-05-05 08:12 | 25.64411 | 52.74705 | 34533 ft | 460 kts | 294° |
| 2026-05-05 08:12 | 25.65930 | 52.71595 | 34846 ft | 459 kts | 294° |
| 2026-05-05 08:12 | 25.67441 | 52.68484 | 35125 ft | 458 kts | 294° |
| 2026-05-05 08:13 | 25.68947 | 52.65376 | 35399 ft | 457 kts | 294° |
| 2026-05-05 08:13 | 25.70449 | 52.62273 | 35695 ft | 456 kts | 294° |
| 2026-05-05 08:13 | 25.73458 | 52.56055 | 35795 ft | 457 kts | 294° |
| 2026-05-05 08:14 | 25.76441 | 52.49886 | 35794 ft | 456 kts | 293° |
| 2026-05-05 08:14 | 25.79370 | 52.43657 | 35794 ft | 454 kts | 293° |
| 2026-05-05 08:15 | 25.82278 | 52.37431 | 35794 ft | 454 kts | 293° |
| 2026-05-05 08:15 | 25.85181 | 52.31214 | 35794 ft | 453 kts | 293° |
| 2026-05-05 08:16 | 25.88079 | 52.24993 | 35794 ft | 453 kts | 292° |
| 2026-05-05 08:16 | 25.90981 | 52.18771 | 35793 ft | 453 kts | 292° |
| 2026-05-05 08:17 | 25.93861 | 52.12542 | 35793 ft | 453 kts | 292° |
| 2026-05-05 08:17 | 25.96710 | 52.06354 | 35793 ft | 452 kts | 292° |
| 2026-05-05 08:18 | 25.99577 | 52.00119 | 35793 ft | 453 kts | 292° |
| 2026-05-05 08:18 | 26.02444 | 51.93885 | 35793 ft | 453 kts | 292° |
| 2026-05-05 08:19 | 26.05314 | 51.87642 | 35802 ft | 452 kts | 292° |
| 2026-05-05 08:19 | 26.08172 | 51.81401 | 35803 ft | 453 kts | 292° |
| 2026-05-05 08:20 | 26.11026 | 51.75156 | 35803 ft | 452 kts | 292° |
| 2026-05-05 08:20 | 26.13865 | 51.68970 | 35802 ft | 452 kts | 292° |
| 2026-05-05 08:21 | 26.16725 | 51.62738 | 35802 ft | 451 kts | 292° |
| 2026-05-05 08:21 | 26.19564 | 51.56497 | 35792 ft | 451 kts | 292° |
| 2026-05-05 08:22 | 26.22391 | 51.50268 | 35802 ft | 450 kts | 292° |
| 2026-05-05 08:22 | 26.25213 | 51.44047 | 35802 ft | 450 kts | 292° |
| 2026-05-05 08:23 | 26.28033 | 51.37825 | 35795 ft | 449 kts | 292° |
| 2026-05-05 08:23 | 26.30847 | 51.31663 | 35791 ft | 448 kts | 292° |
| 2026-05-05 08:24 | 26.33376 | 51.25348 | 36091 ft | 440 kts | 281° |
| 2026-05-05 08:24 | 26.33883 | 51.22003 | 36328 ft | 434 kts | 269° |
| 2026-05-05 08:24 | 26.33732 | 51.18654 | 36493 ft | 432 kts | 260° |
| 2026-05-05 08:25 | 26.33083 | 51.15391 | 36733 ft | 429 kts | 253° |
| 2026-05-05 08:25 | 26.32414 | 51.12148 | 36867 ft | 431 kts | 260° |
| 2026-05-05 08:25 | 26.32023 | 51.08840 | 37107 ft | 430 kts | 262° |
| 2026-05-05 08:25 | 26.31660 | 51.05544 | 37420 ft | 427 kts | 262° |
| 2026-05-05 08:26 | 26.31288 | 51.02261 | 37638 ft | 427 kts | 261° |
| 2026-05-05 08:26 | 26.30868 | 50.98990 | 37776 ft | 428 kts | 261° |
| 2026-05-05 08:26 | 26.30006 | 50.92419 | 37784 ft | 428 kts | 260° |
| 2026-05-05 08:27 | 26.28993 | 50.85897 | 37785 ft | 426 kts | 259° |
| 2026-05-05 08:27 | 26.27966 | 50.79389 | 37787 ft | 426 kts | 259° |
| 2026-05-05 08:28 | 26.26956 | 50.72918 | 37787 ft | 426 kts | 259° |
| 2026-05-05 08:28 | 26.26076 | 50.66386 | 37785 ft | 427 kts | 265° |
| 2026-05-05 08:29 | 26.26443 | 50.59774 | 37788 ft | 429 kts | 275° |
| 2026-05-05 08:30 | 26.27873 | 50.49892 | 37784 ft | 431 kts | 275° |
| 2026-05-05 08:30 | 26.28739 | 50.43266 | 37779 ft | 432 kts | 275° |
| 2026-05-05 08:31 | 26.29601 | 50.36639 | 37771 ft | 432 kts | 275° |
| 2026-05-05 08:31 | 26.31037 | 50.30126 | 37764 ft | 435 kts | 285° |
| 2026-05-05 08:32 | 26.33250 | 50.23822 | 37759 ft | 438 kts | 288° |
| 2026-05-05 08:32 | 26.35575 | 50.17535 | 37758 ft | 439 kts | 287° |
| 2026-05-05 08:33 | 26.37842 | 50.11266 | 37755 ft | 439 kts | 287° |
| 2026-05-05 08:33 | 26.40143 | 50.04964 | 37752 ft | 439 kts | 287° |
| 2026-05-05 08:34 | 26.42410 | 49.98644 | 37745 ft | 438 kts | 287° |
| 2026-05-05 08:34 | 26.44665 | 49.92322 | 37736 ft | 438 kts | 287° |
| 2026-05-05 08:35 | 26.46911 | 49.86015 | 37730 ft | 437 kts | 287° |
| 2026-05-05 08:35 | 26.49158 | 49.79709 | 37728 ft | 437 kts | 287° |
| 2026-05-05 08:36 | 26.51152 | 49.73317 | 37728 ft | 435 kts | 282° |
| 2026-05-05 08:36 | 26.52730 | 49.66807 | 37729 ft | 433 kts | 280° |
| 2026-05-05 08:37 | 26.54273 | 49.60307 | 37731 ft | 432 kts | 281° |
| 2026-05-05 08:37 | 26.55854 | 49.53874 | 37733 ft | 432 kts | 281° |
| 2026-05-05 08:38 | 26.57461 | 49.47406 | 37735 ft | 431 kts | 281° |
| 2026-05-05 08:38 | 26.59071 | 49.40941 | 37734 ft | 431 kts | 281° |
| 2026-05-05 08:39 | 26.60708 | 49.34499 | 37737 ft | 431 kts | 281° |
| 2026-05-05 08:39 | 26.62326 | 49.28063 | 37739 ft | 430 kts | 281° |
| 2026-05-05 08:40 | 26.63936 | 49.21613 | 37742 ft | 430 kts | 281° |
| 2026-05-05 08:40 | 26.65526 | 49.15217 | 37744 ft | 429 kts | 281° |
| 2026-05-05 08:41 | 26.67122 | 49.08787 | 37747 ft | 429 kts | 280° |
| 2026-05-05 08:41 | 26.68732 | 49.02343 | 37750 ft | 429 kts | 281° |
| 2026-05-05 08:42 | 26.70330 | 48.95913 | 37754 ft | 429 kts | 280° |
| 2026-05-05 08:42 | 26.71910 | 48.89479 | 37757 ft | 429 kts | 280° |
| 2026-05-05 08:43 | 26.73476 | 48.83082 | 37760 ft | 429 kts | 280° |
| 2026-05-05 08:43 | 26.75049 | 48.76646 | 37764 ft | 429 kts | 280° |
| 2026-05-05 08:44 | 26.76379 | 48.70175 | 37770 ft | 424 kts | 272° |
| 2026-05-05 08:44 | 26.76552 | 48.63589 | 37762 ft | 423 kts | 265° |
| 2026-05-05 08:45 | 26.76284 | 48.57029 | 37763 ft | 421 kts | 265° |
| 2026-05-05 08:45 | 26.76063 | 48.50474 | 37766 ft | 421 kts | 265° |
| 2026-05-05 08:46 | 26.75866 | 48.43917 | 37769 ft | 422 kts | 265° |
| 2026-05-05 08:46 | 26.75670 | 48.37358 | 37772 ft | 422 kts | 265° |
| 2026-05-05 08:47 | 26.75484 | 48.30786 | 37775 ft | 422 kts | 265° |
| 2026-05-05 08:47 | 26.75307 | 48.24218 | 37778 ft | 422 kts | 266° |
| 2026-05-05 08:48 | 26.75157 | 48.17690 | 37777 ft | 422 kts | 265° |
| 2026-05-05 08:48 | 26.74975 | 48.11126 | 37779 ft | 422 kts | 265° |
| 2026-05-05 08:49 | 26.74783 | 48.04560 | 37782 ft | 422 kts | 265° |
| 2026-05-05 08:49 | 26.74588 | 47.97993 | 37798 ft | 422 kts | 265° |
| 2026-05-05 08:50 | 26.74393 | 47.91433 | 37805 ft | 421 kts | 265° |
| 2026-05-05 08:50 | 26.74333 | 47.84875 | 37808 ft | 422 kts | 269° |
| 2026-05-05 08:51 | 26.74630 | 47.79422 | 37811 ft | 423 kts | 270° |
| 2026-05-05 08:51 | 26.75122 | 47.71750 | 37813 ft | 423 kts | 270° |
| 2026-05-05 08:52 | 26.75428 | 47.66284 | 37816 ft | 423 kts | 269° |
| 2026-05-05 08:52 | 26.75802 | 47.58654 | 37820 ft | 422 kts | 269° |
| 2026-05-05 08:53 | 26.76065 | 47.53143 | 37821 ft | 422 kts | 269° |
| 2026-05-05 08:53 | 26.76374 | 47.46620 | 37823 ft | 423 kts | 269° |
| 2026-05-05 08:54 | 26.76684 | 47.40060 | 37825 ft | 422 kts | 269° |
| 2026-05-05 08:54 | 26.77255 | 47.33513 | 37827 ft | 424 kts | 274° |
| 2026-05-05 08:55 | 26.78290 | 47.27012 | 37828 ft | 425 kts | 276° |
| 2026-05-05 08:55 | 26.79368 | 47.20512 | 37829 ft | 425 kts | 275° |
| 2026-05-05 08:56 | 26.80385 | 47.13988 | 37831 ft | 425 kts | 275° |
| 2026-05-05 08:56 | 26.81376 | 47.07476 | 37835 ft | 424 kts | 275° |
| 2026-05-05 08:57 | 26.82359 | 47.00964 | 37844 ft | 423 kts | 275° |
| 2026-05-05 08:57 | 26.83365 | 46.94460 | 37869 ft | 424 kts | 275° |
| 2026-05-05 08:58 | 26.84360 | 46.87948 | 37869 ft | 424 kts | 274° |
| 2026-05-05 08:58 | 26.85343 | 46.81431 | 37868 ft | 424 kts | 274° |
| 2026-05-05 08:59 | 26.86315 | 46.74959 | 37868 ft | 424 kts | 274° |
| 2026-05-05 08:59 | 26.87309 | 46.68452 | 37869 ft | 424 kts | 274° |
| 2026-05-05 09:00 | 26.88277 | 46.61938 | 37869 ft | 424 kts | 274° |
| 2026-05-05 09:00 | 26.89236 | 46.55420 | 37869 ft | 423 kts | 274° |
| 2026-05-05 09:01 | 26.90191 | 46.48911 | 37869 ft | 424 kts | 274° |
| 2026-05-05 09:01 | 26.91146 | 46.42399 | 37869 ft | 424 kts | 274° |
| 2026-05-05 09:02 | 26.92107 | 46.35881 | 37869 ft | 424 kts | 274° |
| 2026-05-05 09:02 | 26.93069 | 46.29397 | 37870 ft | 424 kts | 274° |
| 2026-05-05 09:03 | 26.94028 | 46.22883 | 37870 ft | 423 kts | 274° |
| 2026-05-05 09:03 | 26.94984 | 46.16372 | 37870 ft | 423 kts | 274° |
| 2026-05-05 09:04 | 26.95936 | 46.09866 | 37872 ft | 423 kts | 274° |
| 2026-05-05 09:04 | 26.96885 | 46.03358 | 37883 ft | 423 kts | 274° |
| 2026-05-05 09:05 | 26.97857 | 45.96853 | 37884 ft | 423 kts | 274° |
| 2026-05-05 09:05 | 26.98829 | 45.90361 | 37884 ft | 422 kts | 274° |
| 2026-05-05 09:06 | 26.99784 | 45.83917 | 37885 ft | 421 kts | 274° |
| 2026-05-05 09:06 | 27.00720 | 45.77428 | 37886 ft | 421 kts | 273° |
| 2026-05-05 09:07 | 27.01648 | 45.70953 | 37886 ft | 420 kts | 273° |
| 2026-05-05 09:07 | 27.02574 | 45.64475 | 37886 ft | 420 kts | 273° |
| 2026-05-05 09:08 | 27.03501 | 45.58000 | 37888 ft | 420 kts | 273° |
| 2026-05-05 09:08 | 27.04418 | 45.51518 | 37889 ft | 420 kts | 273° |
| 2026-05-05 09:09 | 27.05320 | 45.45075 | 37890 ft | 419 kts | 273° |
| 2026-05-05 09:09 | 27.06117 | 45.38593 | 37892 ft | 419 kts | 271° |
| 2026-05-05 09:10 | 27.06804 | 45.32107 | 37893 ft | 418 kts | 271° |
| 2026-05-05 09:10 | 27.07508 | 45.25624 | 37894 ft | 418 kts | 271° |
| 2026-05-05 09:11 | 27.08219 | 45.19144 | 37896 ft | 417 kts | 271° |
| 2026-05-05 09:11 | 27.08925 | 45.12708 | 37897 ft | 417 kts | 271° |
| 2026-05-05 09:12 | 27.09657 | 45.06244 | 37899 ft | 418 kts | 272° |
| 2026-05-05 09:12 | 27.10400 | 44.99771 | 37901 ft | 417 kts | 271° |
| 2026-05-05 09:13 | 27.11105 | 44.93306 | 37903 ft | 417 kts | 271° |
| 2026-05-05 09:13 | 27.11797 | 44.86887 | 37905 ft | 416 kts | 271° |
| 2026-05-05 09:14 | 27.12491 | 44.80426 | 37906 ft | 417 kts | 271° |
| 2026-05-05 09:14 | 27.13186 | 44.73965 | 37908 ft | 416 kts | 271° |
| 2026-05-05 09:15 | 27.13896 | 44.67510 | 37909 ft | 416 kts | 271° |
| 2026-05-05 09:15 | 27.14589 | 44.61067 | 37911 ft | 416 kts | 271° |
| 2026-05-05 09:16 | 27.15270 | 44.54609 | 37912 ft | 416 kts | 271° |
| 2026-05-05 09:16 | 27.15941 | 44.48209 | 37914 ft | 416 kts | 271° |
| 2026-05-05 09:17 | 27.16617 | 44.41760 | 37915 ft | 415 kts | 271° |
| 2026-05-05 09:17 | 27.17289 | 44.35320 | 37916 ft | 415 kts | 271° |
| 2026-05-05 09:18 | 27.17951 | 44.28884 | 37898 ft | 415 kts | 271° |
| 2026-05-05 09:18 | 27.18608 | 44.22448 | 37894 ft | 415 kts | 271° |
| 2026-05-05 09:19 | 27.19262 | 44.16010 | 37904 ft | 414 kts | 271° |
| 2026-05-05 09:19 | 27.19910 | 44.09610 | 37911 ft | 414 kts | 271° |
| 2026-05-05 09:20 | 27.20589 | 44.03163 | 37916 ft | 415 kts | 271° |
| 2026-05-05 09:20 | 27.21267 | 43.96720 | 37917 ft | 414 kts | 271° |
| 2026-05-05 09:21 | 27.21911 | 43.90297 | 37918 ft | 413 kts | 271° |
| 2026-05-05 09:21 | 27.22549 | 43.83868 | 37920 ft | 413 kts | 270° |
| 2026-05-05 09:22 | 27.23183 | 43.77449 | 37921 ft | 413 kts | 270° |
| 2026-05-05 09:22 | 27.23819 | 43.71030 | 37919 ft | 413 kts | 270° |
| 2026-05-05 09:23 | 27.24452 | 43.64623 | 37920 ft | 412 kts | 270° |
| 2026-05-05 09:23 | 27.25080 | 43.58210 | 37922 ft | 413 kts | 270° |
| 2026-05-05 09:24 | 27.25700 | 43.51836 | 37924 ft | 413 kts | 270° |
| 2026-05-05 09:24 | 27.26320 | 43.45423 | 37928 ft | 412 kts | 270° |
| 2026-05-05 09:25 | 27.26936 | 43.39013 | 37941 ft | 412 kts | 270° |
| 2026-05-05 09:25 | 27.27550 | 43.32605 | 37944 ft | 412 kts | 270° |
| 2026-05-05 09:26 | 27.28193 | 43.26196 | 37946 ft | 412 kts | 271° |
| 2026-05-05 09:26 | 27.28821 | 43.19822 | 37949 ft | 412 kts | 271° |
| 2026-05-05 09:27 | 27.29440 | 43.13420 | 37953 ft | 412 kts | 270° |
| 2026-05-05 09:27 | 27.30053 | 43.07003 | 37956 ft | 412 kts | 270° |
| 2026-05-05 09:28 | 27.30661 | 43.00595 | 37960 ft | 412 kts | 270° |
| 2026-05-05 09:28 | 27.31266 | 42.94189 | 37965 ft | 412 kts | 270° |
| 2026-05-05 09:29 | 27.31867 | 42.87786 | 37969 ft | 412 kts | 270° |
| 2026-05-05 09:29 | 27.32467 | 42.81374 | 37973 ft | 412 kts | 270° |
| 2026-05-05 09:30 | 27.33077 | 42.75011 | 37977 ft | 412 kts | 270° |
| 2026-05-05 09:30 | 27.33676 | 42.68603 | 37982 ft | 412 kts | 270° |
| 2026-05-05 09:31 | 27.34261 | 42.62180 | 37986 ft | 412 kts | 270° |
| 2026-05-05 09:31 | 27.34840 | 42.55765 | 37990 ft | 411 kts | 270° |
| 2026-05-05 09:32 | 27.35414 | 42.49403 | 37994 ft | 411 kts | 270° |
| 2026-05-05 09:32 | 27.35991 | 42.43005 | 37999 ft | 411 kts | 270° |
| 2026-05-05 09:33 | 27.36562 | 42.36601 | 38003 ft | 412 kts | 270° |
| 2026-05-05 09:33 | 27.37127 | 42.30188 | 38006 ft | 412 kts | 270° |
| 2026-05-05 09:34 | 27.37687 | 42.23786 | 38009 ft | 411 kts | 270° |
| 2026-05-05 09:34 | 27.38151 | 42.18463 | 38012 ft | 410 kts | 270° |
| 2026-05-05 09:35 | 27.38706 | 42.12072 | 38014 ft | 410 kts | 270° |
| 2026-05-05 09:35 | 27.39553 | 42.02481 | 38018 ft | 411 kts | 270° |
| 2026-05-05 09:36 | 27.40145 | 41.96090 | 38020 ft | 410 kts | 270° |
| 2026-05-05 09:36 | 27.40693 | 41.89733 | 38021 ft | 410 kts | 270° |
| 2026-05-05 09:37 | 27.41235 | 41.83331 | 38022 ft | 410 kts | 270° |
| 2026-05-05 09:37 | 27.41773 | 41.76941 | 38023 ft | 410 kts | 270° |
| 2026-05-05 09:38 | 27.42311 | 41.70552 | 38023 ft | 410 kts | 270° |
| 2026-05-05 09:38 | 27.43177 | 41.64171 | 38023 ft | 413 kts | 275° |
| 2026-05-05 09:39 | 27.44512 | 41.57871 | 38024 ft | 415 kts | 277° |
| 2026-05-05 09:39 | 27.45887 | 41.51550 | 38024 ft | 415 kts | 276° |
| 2026-05-05 09:40 | 27.47189 | 41.45251 | 38023 ft | 415 kts | 276° |
| 2026-05-05 09:40 | 27.48478 | 41.38914 | 38023 ft | 415 kts | 276° |
| 2026-05-05 09:41 | 27.49760 | 41.32583 | 38023 ft | 415 kts | 276° |
| 2026-05-05 09:41 | 27.51082 | 41.26248 | 38023 ft | 415 kts | 276° |
| 2026-05-05 09:42 | 27.52382 | 41.19902 | 38023 ft | 416 kts | 276° |
| 2026-05-05 09:42 | 27.53656 | 41.13554 | 38023 ft | 415 kts | 276° |
| 2026-05-05 09:43 | 27.54925 | 41.07204 | 38024 ft | 415 kts | 276° |
| 2026-05-05 09:43 | 27.56192 | 41.00855 | 38024 ft | 415 kts | 276° |
| 2026-05-05 09:44 | 27.57459 | 40.94502 | 38024 ft | 415 kts | 276° |
| 2026-05-05 09:44 | 27.58713 | 40.88196 | 38025 ft | 415 kts | 276° |
| 2026-05-05 09:45 | 27.59968 | 40.81845 | 38028 ft | 415 kts | 276° |
| 2026-05-05 09:45 | 27.61219 | 40.75491 | 38029 ft | 415 kts | 276° |
| 2026-05-05 09:46 | 27.62466 | 40.69135 | 38030 ft | 415 kts | 276° |
| 2026-05-05 09:46 | 27.63707 | 40.62789 | 38031 ft | 414 kts | 276° |
| 2026-05-05 09:47 | 27.64952 | 40.56437 | 38031 ft | 415 kts | 276° |
| 2026-05-05 09:47 | 27.66226 | 40.50093 | 38032 ft | 415 kts | 276° |
| 2026-05-05 09:48 | 27.67474 | 40.43785 | 38032 ft | 414 kts | 276° |
| 2026-05-05 09:48 | 27.68720 | 40.37433 | 38033 ft | 414 kts | 276° |
| 2026-05-05 09:49 | 27.69959 | 40.31083 | 38033 ft | 414 kts | 275° |
| 2026-05-05 09:49 | 27.71195 | 40.24728 | 38034 ft | 414 kts | 275° |
| 2026-05-05 09:50 | 27.72428 | 40.18370 | 38035 ft | 414 kts | 275° |
| 2026-05-05 09:50 | 27.73659 | 40.12005 | 38035 ft | 415 kts | 275° |
| 2026-05-05 09:51 | 27.74881 | 40.05671 | 38035 ft | 415 kts | 275° |
| 2026-05-05 09:51 | 27.76105 | 39.99307 | 38036 ft | 415 kts | 275° |
| 2026-05-05 09:52 | 27.77326 | 39.92944 | 38036 ft | 415 kts | 275° |
| 2026-05-05 09:52 | 27.78546 | 39.86570 | 38036 ft | 415 kts | 275° |
| 2026-05-05 09:53 | 27.79760 | 39.80207 | 38035 ft | 415 kts | 275° |
| 2026-05-05 09:53 | 27.80975 | 39.73825 | 38035 ft | 415 kts | 275° |
| 2026-05-05 09:54 | 27.82185 | 39.67449 | 38035 ft | 415 kts | 275° |
| 2026-05-05 09:54 | 27.83384 | 39.61122 | 38034 ft | 415 kts | 275° |
| 2026-05-05 09:55 | 27.84588 | 39.54746 | 38034 ft | 414 kts | 275° |
| 2026-05-05 09:55 | 27.85786 | 39.48384 | 38033 ft | 414 kts | 275° |
| 2026-05-05 09:56 | 27.86993 | 39.42014 | 38033 ft | 414 kts | 276° |
| 2026-05-05 09:56 | 27.88201 | 39.35648 | 38032 ft | 414 kts | 275° |
| 2026-05-05 09:57 | 27.89388 | 39.29272 | 38032 ft | 414 kts | 275° |
| 2026-05-05 09:57 | 27.90567 | 39.22897 | 38031 ft | 414 kts | 275° |
| 2026-05-05 09:58 | 27.91736 | 39.16570 | 38030 ft | 414 kts | 275° |
| 2026-05-05 09:58 | 27.92913 | 39.10200 | 38029 ft | 414 kts | 275° |
| 2026-05-05 09:59 | 27.94305 | 39.03848 | 38028 ft | 417 kts | 279° |
| 2026-05-05 09:59 | 27.96077 | 38.97591 | 38027 ft | 418 kts | 281° |
| 2026-05-05 10:00 | 27.97886 | 38.91327 | 38027 ft | 419 kts | 281° |
| 2026-05-05 10:00 | 27.99637 | 38.85082 | 38026 ft | 418 kts | 280° |
| 2026-05-05 10:01 | 28.01373 | 38.78802 | 38025 ft | 417 kts | 280° |
| 2026-05-05 10:01 | 28.03091 | 38.72546 | 38024 ft | 416 kts | 280° |
| 2026-05-05 10:02 | 28.04834 | 38.66287 | 38023 ft | 417 kts | 281° |
| 2026-05-05 10:02 | 28.06574 | 38.60022 | 38023 ft | 417 kts | 281° |
| 2026-05-05 10:03 | 28.08297 | 38.53761 | 38016 ft | 416 kts | 280° |
| 2026-05-05 10:03 | 28.10002 | 38.47539 | 38015 ft | 416 kts | 281° |
| 2026-05-05 10:04 | 28.11716 | 38.41262 | 38014 ft | 417 kts | 280° |
| 2026-05-05 10:04 | 28.13426 | 38.34986 | 38013 ft | 417 kts | 280° |
| 2026-05-05 10:05 | 28.15134 | 38.28704 | 38013 ft | 416 kts | 281° |
| 2026-05-05 10:05 | 28.16833 | 38.22440 | 38012 ft | 416 kts | 281° |
| 2026-05-05 10:06 | 28.18532 | 38.16166 | 38011 ft | 417 kts | 281° |
| 2026-05-05 10:06 | 28.20230 | 38.09882 | 38007 ft | 417 kts | 281° |
| 2026-05-05 10:07 | 28.21927 | 38.03589 | 38002 ft | 417 kts | 281° |
| 2026-05-05 10:07 | 28.23610 | 37.97336 | 38002 ft | 417 kts | 281° |
| 2026-05-05 10:08 | 28.25299 | 37.91047 | 38001 ft | 417 kts | 280° |
| 2026-05-05 10:08 | 28.26993 | 37.84726 | 38000 ft | 417 kts | 280° |
| 2026-05-05 10:09 | 28.28665 | 37.78476 | 38000 ft | 417 kts | 280° |
| 2026-05-05 10:09 | 28.30343 | 37.72188 | 37999 ft | 416 kts | 280° |
| 2026-05-05 10:10 | 28.32017 | 37.65904 | 37994 ft | 416 kts | 280° |
| 2026-05-05 10:10 | 28.33690 | 37.59614 | 37994 ft | 416 kts | 280° |
| 2026-05-05 10:11 | 28.35358 | 37.53327 | 37993 ft | 416 kts | 280° |
| 2026-05-05 10:11 | 28.37023 | 37.47035 | 37993 ft | 416 kts | 280° |
| 2026-05-05 10:12 | 28.38673 | 37.40794 | 38004 ft | 415 kts | 280° |
| 2026-05-05 10:12 | 28.40333 | 37.34497 | 38003 ft | 416 kts | 280° |
| 2026-05-05 10:13 | 28.42001 | 37.28192 | 38002 ft | 416 kts | 281° |
| 2026-05-05 10:13 | 28.43674 | 37.21890 | 37999 ft | 416 kts | 280° |
| 2026-05-05 10:14 | 28.45320 | 37.15590 | 37999 ft | 415 kts | 280° |
| 2026-05-05 10:14 | 28.46959 | 37.09291 | 37998 ft | 415 kts | 280° |
| 2026-05-05 10:15 | 28.48584 | 37.03035 | 37998 ft | 416 kts | 280° |
| 2026-05-05 10:15 | 28.50223 | 36.96728 | 37997 ft | 416 kts | 280° |
| 2026-05-05 10:16 | 28.51873 | 36.90421 | 37996 ft | 416 kts | 280° |
| 2026-05-05 10:16 | 28.53526 | 36.84120 | 37996 ft | 416 kts | 280° |
| 2026-05-05 10:17 | 28.55173 | 36.77818 | 37995 ft | 416 kts | 280° |
| 2026-05-05 10:17 | 28.56805 | 36.71497 | 37995 ft | 416 kts | 280° |
| 2026-05-05 10:18 | 28.58428 | 36.65173 | 37995 ft | 416 kts | 280° |
| 2026-05-05 10:18 | 28.60051 | 36.58845 | 37994 ft | 416 kts | 280° |
| 2026-05-05 10:19 | 28.61688 | 36.52520 | 37994 ft | 417 kts | 281° |
| 2026-05-05 10:19 | 28.63061 | 36.47259 | 37993 ft | 417 kts | 280° |